sensor_id;sensor_type;location;lat;lon;timestamp;pressure;altitude;pressure_sealevel;temperature;humidity
81545;BME280;70990;50.618;7.346;2023-08-30T00:02:14;97592.81;;;14.22;78.65
81545;BME280;70990;50.618;7.346;2023-08-30T00:04:42;97583.25;;;14.23;78.52
81545;BME280;70990;50.618;7.346;2023-08-30T00:07:11;97583.91;;;14.27;78.34
81545;BME280;70990;50.618;7.346;2023-08-30T00:09:38;97589.66;;;14.33;78.64
81545;BME280;70990;50.618;7.346;2023-08-30T00:12:05;97593.47;;;14.26;77.95
81545;BME280;70990;50.618;7.346;2023-08-30T00:14:32;97594.66;;;14.38;78.66
81545;BME280;70990;50.618;7.346;2023-08-30T00:16:58;97579.97;;;14.37;78.14
81545;BME280;70990;50.618;7.346;2023-08-30T00:19:25;97578.75;;;14.38;77.82
81545;BME280;70990;50.618;7.346;2023-08-30T00:21:51;97577.69;;;14.45;77.63
81545;BME280;70990;50.618;7.346;2023-08-30T00:24:18;97583.31;;;14.32;78.44
81545;BME280;70990;50.618;7.346;2023-08-30T00:26:44;97580.41;;;14.36;77.78
81545;BME280;70990;50.618;7.346;2023-08-30T00:29:11;97584.31;;;14.38;77.87
81545;BME280;70990;50.618;7.346;2023-08-30T00:31:38;97589.44;;;14.27;78.43
81545;BME280;70990;50.618;7.346;2023-08-30T00:34:05;97582.47;;;14.23;78.40
81545;BME280;70990;50.618;7.346;2023-08-30T00:36:32;97577.38;;;14.21;78.67
81545;BME280;70990;50.618;7.346;2023-08-30T00:38:58;97576.44;;;14.24;78.69
81545;BME280;70990;50.618;7.346;2023-08-30T00:41:25;97580.47;;;14.23;78.30
81545;BME280;70990;50.618;7.346;2023-08-30T00:43:51;97576.97;;;14.32;78.48
81545;BME280;70990;50.618;7.346;2023-08-30T00:46:18;97576.25;;;14.19;78.23
81545;BME280;70990;50.618;7.346;2023-08-30T00:48:45;97572.41;;;14.16;78.64
81545;BME280;70990;50.618;7.346;2023-08-30T00:51:12;97571.22;;;14.26;78.08
81545;BME280;70990;50.618;7.346;2023-08-30T00:53:39;97571.47;;;14.19;79.95
81545;BME280;70990;50.618;7.346;2023-08-30T00:56:06;97559.59;;;13.97;81.49
81545;BME280;70990;50.618;7.346;2023-08-30T00:58:33;97560.00;;;13.86;81.94
81545;BME280;70990;50.618;7.346;2023-08-30T01:01:00;97556.81;;;13.75;82.51
81545;BME280;70990;50.618;7.346;2023-08-30T01:03:27;97553.59;;;13.77;82.07
81545;BME280;70990;50.618;7.346;2023-08-30T01:05:54;97551.84;;;13.92;81.49
81545;BME280;70990;50.618;7.346;2023-08-30T01:08:21;97553.34;;;13.84;81.06
81545;BME280;70990;50.618;7.346;2023-08-30T01:11:11;97552.59;;;13.70;81.42
81545;BME280;70990;50.618;7.346;2023-08-30T01:13:43;97549.50;;;13.68;81.13
81545;BME280;70990;50.618;7.346;2023-08-30T01:16:11;97551.97;;;13.66;80.97
81545;BME280;70990;50.618;7.346;2023-08-30T01:18:39;97548.44;;;13.53;82.15
81545;BME280;70990;50.618;7.346;2023-08-30T01:21:12;97545.31;;;13.64;80.81
81545;BME280;70990;50.618;7.346;2023-08-30T01:23:49;97541.03;;;13.38;82.25
81545;BME280;70990;50.618;7.346;2023-08-30T01:26:29;97542.50;;;13.42;81.88
81545;BME280;70990;50.618;7.346;2023-08-30T01:29:01;97541.53;;;13.36;82.31
81545;BME280;70990;50.618;7.346;2023-08-30T01:31:31;97538.75;;;13.36;83.24
81545;BME280;70990;50.618;7.346;2023-08-30T01:34:01;97541.53;;;13.36;83.26
81545;BME280;70990;50.618;7.346;2023-08-30T01:36:29;97547.38;;;13.38;82.99
81545;BME280;70990;50.618;7.346;2023-08-30T01:38:58;97537.47;;;13.50;82.91
81545;BME280;70990;50.618;7.346;2023-08-30T01:41:29;97534.56;;;13.53;83.04
81545;BME280;70990;50.618;7.346;2023-08-30T01:43:58;97534.84;;;13.68;82.46
81545;BME280;70990;50.618;7.346;2023-08-30T01:46:25;97528.25;;;13.74;81.85
81545;BME280;70990;50.618;7.346;2023-08-30T01:48:52;97530.47;;;13.80;81.26
81545;BME280;70990;50.618;7.346;2023-08-30T01:51:19;97533.75;;;13.65;81.88
81545;BME280;70990;50.618;7.346;2023-08-30T01:53:46;97535.56;;;13.59;81.68
81545;BME280;70990;50.618;7.346;2023-08-30T01:56:13;97531.56;;;13.60;81.48
81545;BME280;70990;50.618;7.346;2023-08-30T01:58:40;97529.63;;;13.70;81.07
81545;BME280;70990;50.618;7.346;2023-08-30T02:01:07;97528.44;;;13.58;83.33
81545;BME280;70990;50.618;7.346;2023-08-30T02:03:34;97528.03;;;13.47;83.01
81545;BME280;70990;50.618;7.346;2023-08-30T02:06:08;97534.06;;;13.33;83.30
81545;BME280;70990;50.618;7.346;2023-08-30T02:08:55;97528.94;;;13.44;82.82
81545;BME280;70990;50.618;7.346;2023-08-30T02:11:23;97525.91;;;13.51;82.87
81545;BME280;70990;50.618;7.346;2023-08-30T02:13:57;97521.47;;;13.54;82.54
81545;BME280;70990;50.618;7.346;2023-08-30T02:16:26;97528.28;;;13.40;83.17
81545;BME280;70990;50.618;7.346;2023-08-30T02:18:54;97524.97;;;13.32;82.77
81545;BME280;70990;50.618;7.346;2023-08-30T02:21:21;97519.34;;;13.23;83.72
81545;BME280;70990;50.618;7.346;2023-08-30T02:23:51;97520.22;;;13.20;83.97
81545;BME280;70990;50.618;7.346;2023-08-30T02:26:19;97514.91;;;13.13;82.98
81545;BME280;70990;50.618;7.346;2023-08-30T02:28:46;97511.81;;;13.24;82.56
81545;BME280;70990;50.618;7.346;2023-08-30T02:31:13;97517.09;;;13.31;82.76
81545;BME280;70990;50.618;7.346;2023-08-30T02:33:39;97525.53;;;13.27;83.21
81545;BME280;70990;50.618;7.346;2023-08-30T02:36:06;97518.75;;;13.41;81.96
81545;BME280;70990;50.618;7.346;2023-08-30T02:38:32;97523.41;;;13.31;82.80
81545;BME280;70990;50.618;7.346;2023-08-30T02:40:59;97516.00;;;13.28;83.76
81545;BME280;70990;50.618;7.346;2023-08-30T02:43:25;97518.09;;;13.12;85.31
81545;BME280;70990;50.618;7.346;2023-08-30T02:45:52;97523.13;;;13.04;85.54
81545;BME280;70990;50.618;7.346;2023-08-30T02:48:19;97522.78;;;13.02;85.68
81545;BME280;70990;50.618;7.346;2023-08-30T02:50:45;97511.50;;;12.97;86.36
81545;BME280;70990;50.618;7.346;2023-08-30T02:53:12;97511.38;;;13.13;85.99
81545;BME280;70990;50.618;7.346;2023-08-30T02:55:38;97506.50;;;13.17;85.19
81545;BME280;70990;50.618;7.346;2023-08-30T02:58:05;97501.25;;;13.19;84.97
81545;BME280;70990;50.618;7.346;2023-08-30T03:00:32;97495.72;;;13.19;84.61
81545;BME280;70990;50.618;7.346;2023-08-30T03:02:59;97488.31;;;13.38;84.11
81545;BME280;70990;50.618;7.346;2023-08-30T03:05:26;97493.19;;;13.46;83.11
81545;BME280;70990;50.618;7.346;2023-08-30T03:07:53;97482.13;;;13.33;83.59
81545;BME280;70990;50.618;7.346;2023-08-30T03:10:22;97485.53;;;13.16;84.49
81545;BME280;70990;50.618;7.346;2023-08-30T03:12:49;97485.19;;;13.01;84.99
81545;BME280;70990;50.618;7.346;2023-08-30T03:15:15;97492.41;;;12.99;85.33
81545;BME280;70990;50.618;7.346;2023-08-30T03:17:42;97486.31;;;12.91;86.13
81545;BME280;70990;50.618;7.346;2023-08-30T03:20:09;97485.41;;;12.94;85.77
81545;BME280;70990;50.618;7.346;2023-08-30T03:22:36;97487.31;;;12.97;86.24
81545;BME280;70990;50.618;7.346;2023-08-30T03:25:03;97488.69;;;12.67;87.55
81545;BME280;70990;50.618;7.346;2023-08-30T03:27:30;97490.69;;;12.67;87.69
81545;BME280;70990;50.618;7.346;2023-08-30T03:29:56;97495.53;;;12.63;87.30
81545;BME280;70990;50.618;7.346;2023-08-30T03:32:23;97487.91;;;12.67;86.96
81545;BME280;70990;50.618;7.346;2023-08-30T03:34:49;97484.66;;;12.68;86.92
81545;BME280;70990;50.618;7.346;2023-08-30T03:37:17;97485.34;;;12.72;86.83
81545;BME280;70990;50.618;7.346;2023-08-30T03:39:43;97482.66;;;12.81;85.88
81545;BME280;70990;50.618;7.346;2023-08-30T03:42:11;97480.56;;;12.85;85.36
81545;BME280;70990;50.618;7.346;2023-08-30T03:44:37;97483.78;;;12.71;85.78
81545;BME280;70990;50.618;7.346;2023-08-30T03:47:06;97485.72;;;12.49;86.68
81545;BME280;70990;50.618;7.346;2023-08-30T03:49:32;97484.72;;;12.43;86.54
81545;BME280;70990;50.618;7.346;2023-08-30T03:51:59;97485.03;;;12.58;85.41
81545;BME280;70990;50.618;7.346;2023-08-30T03:54:25;97490.25;;;12.43;86.04
81545;BME280;70990;50.618;7.346;2023-08-30T03:56:52;97488.91;;;12.35;86.99
81545;BME280;70990;50.618;7.346;2023-08-30T03:59:19;97487.91;;;12.16;86.72
81545;BME280;70990;50.618;7.346;2023-08-30T04:01:46;97487.34;;;12.21;87.54
81545;BME280;70990;50.618;7.346;2023-08-30T04:04:12;97482.81;;;12.27;87.83
81545;BME280;70990;50.618;7.346;2023-08-30T04:06:39;97487.47;;;12.43;87.94
81545;BME280;70990;50.618;7.346;2023-08-30T04:09:06;97487.56;;;12.52;87.08
81545;BME280;70990;50.618;7.346;2023-08-30T04:11:33;97490.22;;;12.68;87.16
81545;BME280;70990;50.618;7.346;2023-08-30T04:13:59;97481.03;;;12.59;87.46
81545;BME280;70990;50.618;7.346;2023-08-30T04:16:26;97484.03;;;12.51;87.12
81545;BME280;70990;50.618;7.346;2023-08-30T04:18:53;97477.81;;;12.60;87.40
81545;BME280;70990;50.618;7.346;2023-08-30T04:21:20;97488.44;;;12.74;86.88
81545;BME280;70990;50.618;7.346;2023-08-30T04:23:46;97478.47;;;12.77;86.14
81545;BME280;70990;50.618;7.346;2023-08-30T04:26:13;97483.16;;;12.67;86.65
81545;BME280;70990;50.618;7.346;2023-08-30T04:28:40;97484.94;;;12.61;87.52
81545;BME280;70990;50.618;7.346;2023-08-30T04:31:06;97474.84;;;12.55;87.03
81545;BME280;70990;50.618;7.346;2023-08-30T04:33:33;97480.59;;;12.35;87.85
81545;BME280;70990;50.618;7.346;2023-08-30T04:36:01;97486.56;;;12.21;87.62
81545;BME280;70990;50.618;7.346;2023-08-30T04:38:28;97483.78;;;12.08;88.56
81545;BME280;70990;50.618;7.346;2023-08-30T04:40:59;97484.00;;;12.13;88.08
81545;BME280;70990;50.618;7.346;2023-08-30T04:43:26;97486.13;;;12.09;88.19
81545;BME280;70990;50.618;7.346;2023-08-30T04:45:53;97485.78;;;12.07;87.94
81545;BME280;70990;50.618;7.346;2023-08-30T04:48:23;97479.25;;;12.14;87.48
81545;BME280;70990;50.618;7.346;2023-08-30T04:50:58;97480.56;;;12.09;86.70
81545;BME280;70990;50.618;7.346;2023-08-30T04:53:24;97487.53;;;12.01;86.55
81545;BME280;70990;50.618;7.346;2023-08-30T04:55:51;97483.19;;;11.88;87.33
81545;BME280;70990;50.618;7.346;2023-08-30T04:58:18;97479.88;;;11.80;88.23
81545;BME280;70990;50.618;7.346;2023-08-30T05:00:45;97488.25;;;11.77;89.50
81545;BME280;70990;50.618;7.346;2023-08-30T05:03:12;97480.72;;;11.77;88.49
81545;BME280;70990;50.618;7.346;2023-08-30T05:05:39;97477.97;;;11.77;87.99
81545;BME280;70990;50.618;7.346;2023-08-30T05:08:05;97484.84;;;11.85;88.20
81545;BME280;70990;50.618;7.346;2023-08-30T05:10:33;97470.03;;;11.63;88.49
81545;BME280;70990;50.618;7.346;2023-08-30T05:12:59;97471.38;;;11.71;88.17
81545;BME280;70990;50.618;7.346;2023-08-30T05:15:26;97478.13;;;11.70;89.33
81545;BME280;70990;50.618;7.346;2023-08-30T05:17:52;97476.00;;;11.61;90.37
81545;BME280;70990;50.618;7.346;2023-08-30T05:20:19;97479.03;;;11.67;90.39
81545;BME280;70990;50.618;7.346;2023-08-30T05:22:45;97467.59;;;11.65;89.97
81545;BME280;70990;50.618;7.346;2023-08-30T05:25:12;97460.31;;;11.71;88.90
81545;BME280;70990;50.618;7.346;2023-08-30T05:27:38;97467.84;;;11.70;89.71
81545;BME280;70990;50.618;7.346;2023-08-30T05:30:06;97463.44;;;11.73;89.83
81545;BME280;70990;50.618;7.346;2023-08-30T05:32:33;97453.41;;;11.79;89.57
81545;BME280;70990;50.618;7.346;2023-08-30T05:35:16;97459.38;;;11.90;89.39
81545;BME280;70990;50.618;7.346;2023-08-30T05:38:03;97452.97;;;12.06;88.92
81545;BME280;70990;50.618;7.346;2023-08-30T05:40:39;97457.50;;;12.00;89.11
81545;BME280;70990;50.618;7.346;2023-08-30T05:43:05;97447.78;;;12.08;88.69
81545;BME280;70990;50.618;7.346;2023-08-30T05:45:32;97443.13;;;12.05;88.94
81545;BME280;70990;50.618;7.346;2023-08-30T05:47:58;97438.47;;;12.02;89.13
81545;BME280;70990;50.618;7.346;2023-08-30T05:50:25;97440.59;;;12.10;88.99
81545;BME280;70990;50.618;7.346;2023-08-30T05:52:52;97443.47;;;12.20;89.02
81545;BME280;70990;50.618;7.346;2023-08-30T05:55:18;97440.13;;;12.25;89.44
81545;BME280;70990;50.618;7.346;2023-08-30T05:57:44;97440.69;;;12.32;88.67
81545;BME280;70990;50.618;7.346;2023-08-30T06:00:11;97431.38;;;12.39;88.66
81545;BME280;70990;50.618;7.346;2023-08-30T06:02:41;97443.03;;;12.34;89.44
81545;BME280;70990;50.618;7.346;2023-08-30T06:05:08;97436.59;;;12.11;90.26
81545;BME280;70990;50.618;7.346;2023-08-30T06:07:34;97437.91;;;12.20;90.06
81545;BME280;70990;50.618;7.346;2023-08-30T06:10:01;97435.50;;;12.34;89.04
81545;BME280;70990;50.618;7.346;2023-08-30T06:12:28;97447.22;;;12.51;89.11
81545;BME280;70990;50.618;7.346;2023-08-30T06:14:54;97445.25;;;12.39;89.52
81545;BME280;70990;50.618;7.346;2023-08-30T06:17:21;97442.66;;;12.70;87.93
81545;BME280;70990;50.618;7.346;2023-08-30T06:19:51;97453.97;;;12.63;88.69
81545;BME280;70990;50.618;7.346;2023-08-30T06:22:17;97451.13;;;12.53;89.29
81545;BME280;70990;50.618;7.346;2023-08-30T06:24:44;97433.06;;;12.49;89.37
81545;BME280;70990;50.618;7.346;2023-08-30T06:27:10;97444.56;;;12.47;89.83
81545;BME280;70990;50.618;7.346;2023-08-30T06:29:37;97447.56;;;12.53;89.89
81545;BME280;70990;50.618;7.346;2023-08-30T06:32:04;97440.31;;;12.68;89.10
81545;BME280;70990;50.618;7.346;2023-08-30T06:34:34;97451.75;;;12.58;90.35
81545;BME280;70990;50.618;7.346;2023-08-30T06:37:00;97435.47;;;12.60;89.42
81545;BME280;70990;50.618;7.346;2023-08-30T06:39:32;97426.25;;;12.63;89.76
81545;BME280;70990;50.618;7.346;2023-08-30T06:41:59;97436.38;;;12.44;90.48
81545;BME280;70990;50.618;7.346;2023-08-30T06:44:26;97437.03;;;12.48;90.85
81545;BME280;70990;50.618;7.346;2023-08-30T06:46:53;97435.03;;;12.61;90.27
81545;BME280;70990;50.618;7.346;2023-08-30T06:49:19;97439.25;;;12.53;90.74
81545;BME280;70990;50.618;7.346;2023-08-30T06:51:46;97427.72;;;12.67;90.48
81545;BME280;70990;50.618;7.346;2023-08-30T06:54:12;97422.56;;;12.78;90.54
81545;BME280;70990;50.618;7.346;2023-08-30T06:56:56;97424.06;;;13.05;89.20
81545;BME280;70990;50.618;7.346;2023-08-30T06:59:22;97425.97;;;12.95;89.40
81545;BME280;70990;50.618;7.346;2023-08-30T07:01:49;97422.75;;;12.97;89.81
81545;BME280;70990;50.618;7.346;2023-08-30T07:04:16;97420.81;;;13.06;89.46
81545;BME280;70990;50.618;7.346;2023-08-30T07:06:42;97423.09;;;13.33;88.59
81545;BME280;70990;50.618;7.346;2023-08-30T07:09:09;97420.03;;;13.06;89.29
81545;BME280;70990;50.618;7.346;2023-08-30T07:11:35;97411.22;;;13.32;88.26
81545;BME280;70990;50.618;7.346;2023-08-30T07:14:02;97411.53;;;13.56;87.86
81545;BME280;70990;50.618;7.346;2023-08-30T07:16:29;97396.25;;;13.30;87.09
81545;BME280;70990;50.618;7.346;2023-08-30T07:18:56;97400.25;;;13.29;88.42
81545;BME280;70990;50.618;7.346;2023-08-30T07:21:22;97395.72;;;13.44;87.92
81545;BME280;70990;50.618;7.346;2023-08-30T07:23:49;97388.88;;;13.58;87.98
81545;BME280;70990;50.618;7.346;2023-08-30T07:26:19;97397.19;;;13.80;87.70
81545;BME280;70990;50.618;7.346;2023-08-30T07:28:45;97395.84;;;13.93;85.94
81545;BME280;70990;50.618;7.346;2023-08-30T07:31:12;97385.63;;;14.21;85.50
81545;BME280;70990;50.618;7.346;2023-08-30T07:33:38;97387.13;;;14.44;85.09
81545;BME280;70990;50.618;7.346;2023-08-30T07:36:05;97385.53;;;14.34;84.54
81545;BME280;70990;50.618;7.346;2023-08-30T07:38:32;97391.66;;;14.60;84.25
81545;BME280;70990;50.618;7.346;2023-08-30T07:40:58;97395.06;;;14.64;84.12
81545;BME280;70990;50.618;7.346;2023-08-30T07:43:25;97393.22;;;14.70;82.91
81545;BME280;70990;50.618;7.346;2023-08-30T07:45:51;97393.22;;;14.88;83.30
81545;BME280;70990;50.618;7.346;2023-08-30T07:48:18;97407.16;;;14.79;82.21
81545;BME280;70990;50.618;7.346;2023-08-30T07:50:45;97400.81;;;15.06;82.58
81545;BME280;70990;50.618;7.346;2023-08-30T07:53:11;97396.00;;;14.88;81.51
81545;BME280;70990;50.618;7.346;2023-08-30T07:55:38;97400.34;;;14.80;79.83
81545;BME280;70990;50.618;7.346;2023-08-30T07:58:04;97412.88;;;14.93;79.92
81545;BME280;70990;50.618;7.346;2023-08-30T08:00:33;97401.91;;;15.08;79.36
81545;BME280;70990;50.618;7.346;2023-08-30T08:03:00;97405.94;;;15.16;79.71
81545;BME280;70990;50.618;7.346;2023-08-30T08:05:27;97396.34;;;15.26;79.73
81545;BME280;70990;50.618;7.346;2023-08-30T08:07:53;97403.16;;;15.16;79.66
81545;BME280;70990;50.618;7.346;2023-08-30T08:10:20;97402.22;;;15.28;81.50
81545;BME280;70990;50.618;7.346;2023-08-30T08:12:47;97398.03;;;15.51;80.22
81545;BME280;70990;50.618;7.346;2023-08-30T08:15:14;97398.66;;;15.28;79.78
81545;BME280;70990;50.618;7.346;2023-08-30T08:17:40;97403.00;;;15.47;77.94
81545;BME280;70990;50.618;7.346;2023-08-30T08:20:07;97392.50;;;16.11;78.34
81545;BME280;70990;50.618;7.346;2023-08-30T08:22:33;97401.00;;;15.66;75.98
81545;BME280;70990;50.618;7.346;2023-08-30T08:25:00;97403.88;;;15.81;77.51
81545;BME280;70990;50.618;7.346;2023-08-30T08:27:26;97397.53;;;15.89;76.13
81545;BME280;70990;50.618;7.346;2023-08-30T08:29:53;97394.03;;;16.12;75.74
81545;BME280;70990;50.618;7.346;2023-08-30T08:32:19;97391.56;;;16.14;73.99
81545;BME280;70990;50.618;7.346;2023-08-30T08:34:46;97390.53;;;16.36;75.03
81545;BME280;70990;50.618;7.346;2023-08-30T08:37:12;97394.44;;;16.62;72.54
81545;BME280;70990;50.618;7.346;2023-08-30T08:39:39;97387.84;;;16.18;67.33
81545;BME280;70990;50.618;7.346;2023-08-30T08:42:06;97389.50;;;16.57;68.59
81545;BME280;70990;50.618;7.346;2023-08-30T08:44:33;97394.47;;;16.53;65.26
81545;BME280;70990;50.618;7.346;2023-08-30T08:47:01;97392.16;;;16.84;70.23
81545;BME280;70990;50.618;7.346;2023-08-30T08:49:28;97391.81;;;17.06;68.06
81545;BME280;70990;50.618;7.346;2023-08-30T08:51:55;97391.72;;;17.01;66.07
81545;BME280;70990;50.618;7.346;2023-08-30T08:54:21;97404.06;;;17.09;68.07
81545;BME280;70990;50.618;7.346;2023-08-30T08:56:49;97389.84;;;17.21;67.14
81545;BME280;70990;50.618;7.346;2023-08-30T08:59:16;97381.56;;;17.65;64.43
81545;BME280;70990;50.618;7.346;2023-08-30T09:01:43;97389.13;;;17.36;62.64
81545;BME280;70990;50.618;7.346;2023-08-30T09:04:10;97375.91;;;17.21;62.31
81545;BME280;70990;50.618;7.346;2023-08-30T09:06:38;97383.88;;;17.82;62.75
81545;BME280;70990;50.618;7.346;2023-08-30T09:09:05;97382.25;;;17.75;62.58
81545;BME280;70990;50.618;7.346;2023-08-30T09:11:32;97384.16;;;17.54;62.53
81545;BME280;70990;50.618;7.346;2023-08-30T09:14:17;97386.94;;;17.54;63.84
81545;BME280;70990;50.618;7.346;2023-08-30T09:16:56;97379.47;;;17.22;64.75
81545;BME280;70990;50.618;7.346;2023-08-30T09:19:24;97389.75;;;17.16;64.76
81545;BME280;70990;50.618;7.346;2023-08-30T09:21:54;97382.94;;;16.93;64.80
81545;BME280;70990;50.618;7.346;2023-08-30T09:24:21;97395.47;;;16.74;65.34
81545;BME280;70990;50.618;7.346;2023-08-30T09:26:53;97381.06;;;16.42;67.45
81545;BME280;70990;50.618;7.346;2023-08-30T09:29:21;97386.75;;;16.48;68.38
81545;BME280;70990;50.618;7.346;2023-08-30T09:31:51;97385.47;;;16.58;67.27
81545;BME280;70990;50.618;7.346;2023-08-30T09:34:22;97381.09;;;16.33;68.88
81545;BME280;70990;50.618;7.346;2023-08-30T09:36:49;97377.84;;;16.35;70.15
81545;BME280;70990;50.618;7.346;2023-08-30T09:39:16;97373.03;;;16.68;69.71
81545;BME280;70990;50.618;7.346;2023-08-30T09:41:46;97367.53;;;16.50;69.43
81545;BME280;70990;50.618;7.346;2023-08-30T09:44:14;97359.25;;;16.88;69.33
81545;BME280;70990;50.618;7.346;2023-08-30T09:46:46;97359.75;;;17.40;69.07
81545;BME280;70990;50.618;7.346;2023-08-30T09:49:18;97353.19;;;17.43;68.52
81545;BME280;70990;50.618;7.346;2023-08-30T09:51:46;97343.59;;;17.59;67.89
81545;BME280;70990;50.618;7.346;2023-08-30T09:54:20;97343.75;;;18.14;66.48
81545;BME280;70990;50.618;7.346;2023-08-30T09:56:50;97327.31;;;17.87;66.48
81545;BME280;70990;50.618;7.346;2023-08-30T09:59:16;97343.81;;;17.85;65.47
81545;BME280;70990;50.618;7.346;2023-08-30T10:01:44;97335.13;;;17.68;64.23
81545;BME280;70990;50.618;7.346;2023-08-30T10:04:12;97325.41;;;17.63;65.89
81545;BME280;70990;50.618;7.346;2023-08-30T10:06:39;97322.00;;;17.59;65.03
81545;BME280;70990;50.618;7.346;2023-08-30T10:09:08;97322.69;;;17.84;65.08
81545;BME280;70990;50.618;7.346;2023-08-30T10:11:36;97313.38;;;18.07;63.19
81545;BME280;70990;50.618;7.346;2023-08-30T10:14:06;97320.81;;;18.10;63.07
81545;BME280;70990;50.618;7.346;2023-08-30T10:16:51;97309.66;;;17.95;63.70
81545;BME280;70990;50.618;7.346;2023-08-30T10:19:24;97308.31;;;17.91;62.56
81545;BME280;70990;50.618;7.346;2023-08-30T10:22:03;97305.78;;;17.93;63.63
81545;BME280;70990;50.618;7.346;2023-08-30T10:24:35;97300.50;;;17.95;61.77
81545;BME280;70990;50.618;7.346;2023-08-30T10:27:24;97305.06;;;18.27;63.66
81545;BME280;70990;50.618;7.346;2023-08-30T10:29:54;97310.69;;;18.47;62.57
81545;BME280;70990;50.618;7.346;2023-08-30T10:32:21;97314.47;;;17.95;62.52
81545;BME280;70990;50.618;7.346;2023-08-30T10:34:49;97319.41;;;17.70;61.50
81545;BME280;70990;50.618;7.346;2023-08-30T10:37:22;97316.06;;;17.66;63.72
81545;BME280;70990;50.618;7.346;2023-08-30T10:39:49;97309.88;;;17.62;62.80
81545;BME280;70990;50.618;7.346;2023-08-30T10:42:16;97311.97;;;17.97;63.42
81545;BME280;70990;50.618;7.346;2023-08-30T10:44:50;97308.03;;;17.89;64.75
81545;BME280;70990;50.618;7.346;2023-08-30T10:47:24;97314.69;;;17.77;63.57
81545;BME280;70990;50.618;7.346;2023-08-30T10:49:53;97317.88;;;17.69;64.52
81545;BME280;70990;50.618;7.346;2023-08-30T10:52:21;97312.34;;;17.31;63.26
81545;BME280;70990;50.618;7.346;2023-08-30T10:54:47;97319.84;;;17.10;63.78
81545;BME280;70990;50.618;7.346;2023-08-30T10:57:15;97316.13;;;16.89;63.57
81545;BME280;70990;50.618;7.346;2023-08-30T11:00:10;97321.72;;;16.89;65.53
81545;BME280;70990;50.618;7.346;2023-08-30T11:02:37;97318.41;;;16.76;65.11
81545;BME280;70990;50.618;7.346;2023-08-30T11:05:08;97327.44;;;16.71;66.52
81545;BME280;70990;50.618;7.346;2023-08-30T11:07:35;97321.97;;;16.53;67.37
81545;BME280;70990;50.618;7.346;2023-08-30T11:10:04;97319.06;;;16.71;69.27
81545;BME280;70990;50.618;7.346;2023-08-30T11:12:31;97310.72;;;16.71;67.58
81545;BME280;70990;50.618;7.346;2023-08-30T11:14:58;97311.34;;;16.90;68.79
81545;BME280;70990;50.618;7.346;2023-08-30T11:17:26;97314.44;;;16.92;67.99
81545;BME280;70990;50.618;7.346;2023-08-30T11:20:07;97308.44;;;16.84;66.60
81545;BME280;70990;50.618;7.346;2023-08-30T11:22:38;97308.44;;;16.99;63.48
81545;BME280;70990;50.618;7.346;2023-08-30T11:25:09;97307.41;;;16.97;64.36
81545;BME280;70990;50.618;7.346;2023-08-30T11:27:39;97304.81;;;16.69;66.08
81545;BME280;70990;50.618;7.346;2023-08-30T11:30:07;97299.97;;;16.55;66.07
81545;BME280;70990;50.618;7.346;2023-08-30T11:32:35;97305.22;;;16.53;68.25
81545;BME280;70990;50.618;7.346;2023-08-30T11:35:03;97303.25;;;16.21;70.05
81545;BME280;70990;50.618;7.346;2023-08-30T11:37:30;97294.03;;;16.05;71.98
81545;BME280;70990;50.618;7.346;2023-08-30T11:39:57;97306.72;;;16.06;70.70
81545;BME280;70990;50.618;7.346;2023-08-30T11:42:25;97308.47;;;16.04;72.82
81545;BME280;70990;50.618;7.346;2023-08-30T11:44:52;97303.13;;;16.15;73.04
81545;BME280;70990;50.618;7.346;2023-08-30T11:47:25;97303.03;;;16.00;71.78
81545;BME280;70990;50.618;7.346;2023-08-30T11:49:55;97280.75;;;16.00;70.92
81545;BME280;70990;50.618;7.346;2023-08-30T11:52:23;97284.97;;;16.20;69.58
81545;BME280;70990;50.618;7.346;2023-08-30T11:54:50;97283.03;;;16.35;70.92
81545;BME280;70990;50.618;7.346;2023-08-30T11:57:17;97281.41;;;16.43;68.62
81545;BME280;70990;50.618;7.346;2023-08-30T11:59:44;97276.56;;;16.52;69.58
81545;BME280;70990;50.618;7.346;2023-08-30T12:02:12;97281.47;;;16.58;67.51
81545;BME280;70990;50.618;7.346;2023-08-30T12:04:43;97275.69;;;16.70;67.82
81545;BME280;70990;50.618;7.346;2023-08-30T12:07:10;97275.38;;;16.68;66.98
81545;BME280;70990;50.618;7.346;2023-08-30T12:09:37;97279.94;;;16.57;66.85
81545;BME280;70990;50.618;7.346;2023-08-30T12:12:09;97277.34;;;16.53;67.18
81545;BME280;70990;50.618;7.346;2023-08-30T12:14:36;97273.88;;;16.58;66.61
81545;BME280;70990;50.618;7.346;2023-08-30T12:17:03;97265.41;;;16.52;69.91
81545;BME280;70990;50.618;7.346;2023-08-30T12:19:33;97271.00;;;16.52;70.64
81545;BME280;70990;50.618;7.346;2023-08-30T12:22:04;97270.25;;;16.43;69.89
81545;BME280;70990;50.618;7.346;2023-08-30T12:24:42;97264.69;;;16.43;70.47
81545;BME280;70990;50.618;7.346;2023-08-30T12:27:08;97269.28;;;16.55;70.63
81545;BME280;70990;50.618;7.346;2023-08-30T12:29:35;97265.75;;;16.45;70.07
81545;BME280;70990;50.618;7.346;2023-08-30T12:32:01;97263.56;;;16.49;69.16
81545;BME280;70990;50.618;7.346;2023-08-30T12:34:28;97273.19;;;16.48;69.65
81545;BME280;70990;50.618;7.346;2023-08-30T12:36:55;97263.34;;;16.14;71.04
81545;BME280;70990;50.618;7.346;2023-08-30T12:39:21;97258.00;;;16.26;72.13
81545;BME280;70990;50.618;7.346;2023-08-30T12:41:48;97262.19;;;15.97;72.92
81545;BME280;70990;50.618;7.346;2023-08-30T12:44:15;97266.34;;;16.02;73.75
81545;BME280;70990;50.618;7.346;2023-08-30T12:46:41;97270.44;;;15.92;72.79
81545;BME280;70990;50.618;7.346;2023-08-30T12:49:08;97274.25;;;16.03;72.71
81545;BME280;70990;50.618;7.346;2023-08-30T12:51:34;97273.38;;;15.88;72.98
81545;BME280;70990;50.618;7.346;2023-08-30T12:54:00;97267.31;;;15.99;74.16
81545;BME280;70990;50.618;7.346;2023-08-30T12:56:29;97269.91;;;16.02;74.81
81545;BME280;70990;50.618;7.346;2023-08-30T12:58:56;97275.59;;;16.08;74.52
81545;BME280;70990;50.618;7.346;2023-08-30T13:01:22;97268.59;;;16.12;72.95
81545;BME280;70990;50.618;7.346;2023-08-30T13:03:49;97263.88;;;16.28;73.65
81545;BME280;70990;50.618;7.346;2023-08-30T13:06:16;97259.38;;;16.30;73.53